createdAt,value
2022-11-08T00:00:45.133Z,27.80
2022-11-08T00:03:13.172Z,32.90
2022-11-08T00:06:01.470Z,28.20
2022-11-08T00:08:48.331Z,31.60
2022-11-08T00:11:35.218Z,32.10
2022-11-08T00:14:03.796Z,30.30
2022-11-08T00:16:31.536Z,30.30
2022-11-08T00:18:59.782Z,28.30
2022-11-08T00:21:27.525Z,27.80
2022-11-08T00:23:55.574Z,29.10
2022-11-08T00:26:23.382Z,28.80
2022-11-08T00:28:52.787Z,29.10
2022-11-08T00:31:20.488Z,31.60
2022-11-08T00:33:48.428Z,32.90
2022-11-08T00:36:16.443Z,32.40
2022-11-08T00:38:44.979Z,27.10
2022-11-08T00:41:14.264Z,28.40
2022-11-08T00:43:44.335Z,29.80
2022-11-08T00:46:14.383Z,28.60
2022-11-08T00:48:42.200Z,28.20
2022-11-08T00:51:12.996Z,30.20
2022-11-08T00:53:43.091Z,27.80
2022-11-08T00:56:14.056Z,29.00
2022-11-08T00:58:42.069Z,26.90
2022-11-08T01:01:17.793Z,29.60
2022-11-08T01:03:48.620Z,31.80
2022-11-08T01:06:19.429Z,27.70
2022-11-08T01:08:49.892Z,27.40
2022-11-08T01:11:21.761Z,25.80
2022-11-08T01:13:55.769Z,28.80
2022-11-08T01:16:26.997Z,29.40
2022-11-08T01:18:58.476Z,28.50
2022-11-08T01:21:28.779Z,28.70
2022-11-08T01:23:58.801Z,27.70
2022-11-08T01:26:30.346Z,28.10
2022-11-08T01:29:00.600Z,26.90
2022-11-08T01:31:30.864Z,28.70
2022-11-08T01:34:01.412Z,28.60
2022-11-08T01:36:30.397Z,28.10
2022-11-08T01:38:58.416Z,26.40
2022-11-08T01:41:29.137Z,28.80
2022-11-08T01:44:02.680Z,28.30
2022-11-08T01:49:25.158Z,26.50
2022-11-08T01:52:03.061Z,27.00
2022-11-08T01:54:38.038Z,27.80
2022-11-08T01:57:15.076Z,29.30
2022-11-08T01:59:47.879Z,28.40
2022-11-08T02:02:18.058Z,29.00
2022-11-08T02:04:46.051Z,28.80
2022-11-08T02:07:17.676Z,28.10
2022-11-08T02:09:48.819Z,26.30
2022-11-08T02:12:21.748Z,28.60
2022-11-08T02:14:49.708Z,27.20
2022-11-08T02:17:19.712Z,27.90
2022-11-08T02:19:51.199Z,26.20
2022-11-08T02:22:28.995Z,28.60
2022-11-08T02:25:00.956Z,30.20
2022-11-08T02:27:28.718Z,28.30
2022-11-08T02:29:58.807Z,28.90
2022-11-08T02:32:26.598Z,26.90
2022-11-08T02:35:00.581Z,28.80
2022-11-08T02:37:30.700Z,25.70
2022-11-08T02:39:58.700Z,31.00
2022-11-08T02:42:26.665Z,27.80
2022-11-08T02:44:54.401Z,26.40
2022-11-08T02:47:24.874Z,27.10
2022-11-08T02:49:52.725Z,28.40
2022-11-08T02:52:20.680Z,28.00
2022-11-08T02:54:48.649Z,26.80
2022-11-08T02:57:16.357Z,28.00
2022-11-08T02:59:44.310Z,29.40
2022-11-08T03:02:12.382Z,27.30
2022-11-08T03:04:41.847Z,29.50
2022-11-08T03:07:11.853Z,28.40
2022-11-08T03:09:39.760Z,28.00
2022-11-08T03:12:07.805Z,30.00
2022-11-08T03:14:35.810Z,29.00
2022-11-08T03:17:06.913Z,28.60
2022-11-08T03:19:37.024Z,28.90
2022-11-08T03:22:04.994Z,27.50
2022-11-08T03:24:36.127Z,29.30
2022-11-08T03:27:06.654Z,28.40
2022-11-08T03:29:34.387Z,30.20
2022-11-08T03:32:02.336Z,27.30
2022-11-08T03:34:30.293Z,29.20
2022-11-08T03:36:59.821Z,29.60
2022-11-08T03:39:27.807Z,27.20
2022-11-08T03:41:55.519Z,27.60
2022-11-08T03:44:23.453Z,29.50
2022-11-08T03:46:51.156Z,29.30
2022-11-08T03:49:18.859Z,28.40
2022-11-08T03:51:49.255Z,30.00
2022-11-08T03:54:16.991Z,29.50
2022-11-08T03:56:46.878Z,34.60
2022-11-08T03:59:14.678Z,27.40
2022-11-08T04:01:44.972Z,28.20
2022-11-08T04:04:13.009Z,29.80
2022-11-08T04:06:40.734Z,29.10
2022-11-08T04:09:08.699Z,30.10
2022-11-08T04:11:55.086Z,31.50
2022-11-08T04:14:41.636Z,32.00
2022-11-08T04:17:09.314Z,29.70
2022-11-08T04:19:55.597Z,29.20
2022-11-08T04:22:23.349Z,31.70
2022-11-08T04:24:51.167Z,30.20
2022-11-08T04:27:19.033Z,28.70
2022-11-08T04:29:46.702Z,29.70
2022-11-08T04:32:14.683Z,31.10
2022-11-08T04:34:43.331Z,32.00
2022-11-08T04:37:13.159Z,31.50
2022-11-08T04:39:40.850Z,30.30
2022-11-08T04:42:08.864Z,29.10
2022-11-08T04:44:36.802Z,32.50
2022-11-08T04:47:04.828Z,30.70
2022-11-08T04:49:32.522Z,30.20
2022-11-08T04:52:00.219Z,33.40
2022-11-08T04:54:27.945Z,28.80
2022-11-08T04:56:55.854Z,33.10
2022-11-08T04:59:23.804Z,28.10
2022-11-08T05:01:51.813Z,30.60
2022-11-08T05:04:21.639Z,31.00
2022-11-08T05:06:49.363Z,30.20
2022-11-08T05:09:17.101Z,29.20
2022-11-08T05:11:44.891Z,30.70
2022-11-08T05:14:12.661Z,32.40
2022-11-08T05:16:40.653Z,30.60
2022-11-08T05:19:13.020Z,32.40
2022-11-08T05:22:00.581Z,33.80
2022-11-08T05:24:28.512Z,29.90
2022-11-08T05:26:56.228Z,32.00
2022-11-08T05:29:24.151Z,30.60
2022-11-08T05:31:53.654Z,31.00
2022-11-08T05:34:21.575Z,33.90
2022-11-08T05:36:49.472Z,30.20
2022-11-08T05:39:19.678Z,29.10
2022-11-08T05:41:47.762Z,30.80
2022-11-08T05:44:15.900Z,30.70
2022-11-08T05:46:43.856Z,32.30
2022-11-08T05:49:11.780Z,31.20
2022-11-08T05:51:39.712Z,37.60
2022-11-08T05:54:10.392Z,29.80
2022-11-08T05:56:38.301Z,29.90
2022-11-08T05:59:08.313Z,34.50
2022-11-08T06:01:36.058Z,36.30
2022-11-08T06:04:06.294Z,35.00
2022-11-08T06:06:36.381Z,34.60
2022-11-08T06:09:04.203Z,31.20
2022-11-08T06:11:32.208Z,34.40
2022-11-08T06:14:01.847Z,32.20
2022-11-08T06:16:29.861Z,35.30
2022-11-08T06:18:59.398Z,33.80
2022-11-08T06:21:27.910Z,31.70
2022-11-08T06:23:55.687Z,33.00
2022-11-08T06:26:26.063Z,34.40
2022-11-08T06:28:54.012Z,34.40
2022-11-08T06:31:22.810Z,35.80
2022-11-08T06:33:50.596Z,37.50
2022-11-08T06:36:18.677Z,34.70
2022-11-08T06:38:46.373Z,31.90
2022-11-08T06:41:20.197Z,33.10
2022-11-08T06:43:49.624Z,32.80
2022-11-08T06:46:17.607Z,33.30
2022-11-08T06:48:45.585Z,32.60
2022-11-08T06:51:14.405Z,34.20
2022-11-08T06:53:44.469Z,32.80
2022-11-08T06:56:12.816Z,32.90
2022-11-08T06:58:40.781Z,34.90
2022-11-08T07:01:10.788Z,35.10
2022-11-08T07:03:38.675Z,30.30
2022-11-08T07:06:08.509Z,32.40
2022-11-08T07:08:36.411Z,33.30
2022-11-08T07:11:04.871Z,34.10
2022-11-08T07:13:32.838Z,34.20
2022-11-08T07:16:02.845Z,34.00
2022-11-08T07:18:31.444Z,35.30
2022-11-08T07:21:03.555Z,32.70
2022-11-08T07:23:33.754Z,36.50
2022-11-08T07:26:09.006Z,35.80
2022-11-08T07:28:36.746Z,32.60
2022-11-08T07:31:07.795Z,34.60
2022-11-08T07:33:38.108Z,35.10
2022-11-08T07:36:06.075Z,32.20
2022-11-08T07:38:34.037Z,30.70
2022-11-08T07:41:04.442Z,34.30
2022-11-08T07:43:32.927Z,38.50
2022-11-08T07:46:04.065Z,34.30
2022-11-08T07:48:31.920Z,36.00
2022-11-08T07:51:01.946Z,34.70
2022-11-08T07:53:30.837Z,33.00
2022-11-08T07:55:58.810Z,35.60
2022-11-08T07:58:28.750Z,35.20
2022-11-08T08:01:03.468Z,31.30
2022-11-08T08:03:33.784Z,35.10
2022-11-08T08:06:03.788Z,35.60
2022-11-08T08:08:34.330Z,32.80
2022-11-08T08:11:05.287Z,34.30
2022-11-08T08:13:33.297Z,33.10
2022-11-08T08:16:03.547Z,35.80
2022-11-08T08:18:31.563Z,34.30
2022-11-08T08:21:01.940Z,34.20
2022-11-08T08:23:29.940Z,34.10
2022-11-08T08:25:57.920Z,35.60
2022-11-08T08:28:25.931Z,32.30
2022-11-08T08:30:53.892Z,30.60
2022-11-08T08:33:34.209Z,33.80
2022-11-08T08:36:04.819Z,30.70
2022-11-08T08:38:41.403Z,33.20
2022-11-08T08:41:13.291Z,31.80
2022-11-08T08:43:41.306Z,33.10
2022-11-08T08:46:11.369Z,30.50
2022-11-08T08:48:39.053Z,30.30
2022-11-08T08:51:09.695Z,31.40
2022-11-08T08:53:37.421Z,32.40
2022-11-08T08:56:08.415Z,31.40
2022-11-08T08:58:36.600Z,30.00
2022-11-08T09:04:06.600Z,30.50
2022-11-08T09:06:34.446Z,27.90
2022-11-08T09:09:04.469Z,27.30
2022-11-08T09:11:32.399Z,26.70
2022-11-08T09:14:00.123Z,25.10
2022-11-08T09:16:28.072Z,28.60
2022-11-08T09:18:56.023Z,27.50
2022-11-08T09:21:24.061Z,25.90
2022-11-08T09:23:52.057Z,29.40
2022-11-08T09:26:19.770Z,24.60
2022-11-08T09:28:47.478Z,27.70
2022-11-08T09:31:17.703Z,25.70
2022-11-08T09:33:49.588Z,25.60
2022-11-08T09:36:19.638Z,25.60
2022-11-08T09:38:47.342Z,29.80
2022-11-08T09:41:43.632Z,23.70
2022-11-08T09:44:27.576Z,26.10
2022-11-08T09:47:05.077Z,25.90
2022-11-08T09:50:05.549Z,23.20
2022-11-08T09:52:35.933Z,23.80
2022-11-08T09:55:38.413Z,26.60
2022-11-08T09:58:19.831Z,26.60
2022-11-08T10:00:53.009Z,28.90
2022-11-08T10:03:25.025Z,25.40
2022-11-08T10:05:58.765Z,28.00
2022-11-08T10:08:42.972Z,24.60
2022-11-08T10:11:28.458Z,26.20
2022-11-08T10:14:34.102Z,25.40
2022-11-08T10:17:25.244Z,25.40
2022-11-08T10:20:21.272Z,25.10
2022-11-08T10:23:10.412Z,24.10
2022-11-08T10:26:00.006Z,25.70
2022-11-08T10:28:43.375Z,28.10
2022-11-08T10:31:18.737Z,23.80
2022-11-08T10:33:59.439Z,24.30
2022-11-08T10:36:50.035Z,25.20
2022-11-08T10:39:30.394Z,23.20
2022-11-08T10:42:18.039Z,24.90
2022-11-08T10:44:48.348Z,21.30
2022-11-08T10:47:33.271Z,23.00
2022-11-08T10:50:04.460Z,22.80
2022-11-08T10:52:46.866Z,22.40
2022-11-08T10:55:40.470Z,22.60
2022-11-08T10:58:34.070Z,23.60
2022-11-08T11:01:14.374Z,24.80
2022-11-08T11:03:44.364Z,22.20
2022-11-08T11:06:21.416Z,22.30
2022-11-08T11:09:02.024Z,25.50
2022-11-08T11:11:33.022Z,22.70
2022-11-08T11:14:16.586Z,22.10
2022-11-08T11:16:58.470Z,23.90
2022-11-08T11:19:29.518Z,26.00
2022-11-08T11:22:12.119Z,21.90
2022-11-08T11:24:51.639Z,23.10
2022-11-08T11:27:41.799Z,25.10
2022-11-08T11:30:12.859Z,24.30
2022-11-08T11:32:56.421Z,24.10
2022-11-08T11:35:38.343Z,24.80
2022-11-08T11:38:20.146Z,23.20
2022-11-08T11:40:53.209Z,25.80
2022-11-08T11:43:36.049Z,23.70
2022-11-08T11:46:42.016Z,22.00
2022-11-08T11:49:22.255Z,21.50
2022-11-08T11:51:55.872Z,22.70
2022-11-08T11:54:35.910Z,23.20
2022-11-08T11:57:41.910Z,21.70
2022-11-08T12:00:15.795Z,21.80
2022-11-08T12:03:02.284Z,20.90
2022-11-08T12:06:01.616Z,20.90
2022-11-08T12:08:38.531Z,23.60
2022-11-08T12:11:50.150Z,22.60
2022-11-08T12:14:25.081Z,22.30
2022-11-08T12:17:41.078Z,22.60
2022-11-08T12:20:31.112Z,25.40
2022-11-08T12:23:11.174Z,23.20
2022-11-08T12:26:07.384Z,24.90
2022-11-08T12:28:52.919Z,24.20
2022-11-08T12:31:35.814Z,23.30
2022-11-08T12:34:38.577Z,23.00
2022-11-08T12:37:31.182Z,22.80
2022-11-08T12:39:58.855Z,24.90
2022-11-08T12:42:44.501Z,22.60
2022-11-08T12:45:36.043Z,22.10
2022-11-08T12:48:23.081Z,21.70
2022-11-08T12:51:26.325Z,23.60
2022-11-08T12:54:15.411Z,22.00
2022-11-08T12:56:48.513Z,22.90
2022-11-08T12:59:45.002Z,22.90
2022-11-08T13:02:26.832Z,20.30
2022-11-08T13:05:11.514Z,23.60
2022-11-08T13:08:14.698Z,21.40
2022-11-08T13:11:03.059Z,22.90
2022-11-08T13:13:51.027Z,22.30
2022-11-08T13:16:25.896Z,23.40
2022-11-08T13:18:58.207Z,23.30
2022-11-08T13:21:26.149Z,22.00
2022-11-08T13:24:06.683Z,21.80
2022-11-08T13:26:46.960Z,21.00
2022-11-08T13:29:27.551Z,21.60
2022-11-08T13:32:01.126Z,21.90
2022-11-08T13:34:52.735Z,23.00
2022-11-08T13:37:58.661Z,22.10
2022-11-08T13:40:40.709Z,23.60
2022-11-08T13:43:28.188Z,23.00
2022-11-08T13:46:17.476Z,23.30
2022-11-08T13:49:16.186Z,23.30
2022-11-08T13:51:46.862Z,24.10
2022-11-08T13:54:23.776Z,23.90
2022-11-08T13:56:58.573Z,22.30
2022-11-08T13:59:33.317Z,21.80
2022-11-08T14:02:15.250Z,20.90
2022-11-08T14:04:46.083Z,22.20
2022-11-08T14:07:44.158Z,24.10
2022-11-08T14:10:34.533Z,23.90
2022-11-08T14:13:11.579Z,22.60
2022-11-08T14:15:56.194Z,24.30
2022-11-08T14:18:35.154Z,22.80
2022-11-08T14:21:06.921Z,23.80
2022-11-08T14:23:42.220Z,23.70
2022-11-08T14:26:23.652Z,24.00
2022-11-08T14:28:54.248Z,23.10
2022-11-08T14:31:28.500Z,25.00
2022-11-08T14:33:59.281Z,23.70
2022-11-08T14:36:31.798Z,26.70
2022-11-08T14:39:12.418Z,23.10
2022-11-08T14:41:48.058Z,28.20
2022-11-08T14:44:19.518Z,26.60
2022-11-08T14:46:50.048Z,26.30
2022-11-08T14:49:33.948Z,28.20
2022-11-08T14:54:44.028Z,25.70
2022-11-08T14:57:35.630Z,27.90
2022-11-08T15:00:12.526Z,25.90
2022-11-08T15:02:48.829Z,25.60
2022-11-08T15:05:42.656Z,27.10
2022-11-08T15:08:35.085Z,25.80
2022-11-08T15:11:06.283Z,26.30
2022-11-08T15:13:50.638Z,28.70
2022-11-08T15:16:18.490Z,31.70
2022-11-08T15:18:51.898Z,28.10
2022-11-08T15:21:33.610Z,29.50
2022-11-08T15:24:12.982Z,24.80
2022-11-08T15:27:19.135Z,27.60
2022-11-08T15:30:01.702Z,29.90
2022-11-08T15:32:37.399Z,32.60
2022-11-08T15:35:22.415Z,31.10
2022-11-08T15:38:01.241Z,32.10
2022-11-08T15:40:38.013Z,30.90
2022-11-08T15:43:07.929Z,29.10
2022-11-08T15:45:37.984Z,30.30
2022-11-08T15:48:08.686Z,30.80
2022-11-08T15:50:41.048Z,35.00
2022-11-08T15:53:11.485Z,34.00
2022-11-08T15:55:57.057Z,32.60
2022-11-08T15:58:33.319Z,33.20
2022-11-08T16:01:04.973Z,41.00
2022-11-08T16:03:36.359Z,44.00
2022-11-08T16:06:04.393Z,41.10
2022-11-08T16:08:32.157Z,44.50
2022-11-08T16:11:03.003Z,44.30
2022-11-08T16:13:37.006Z,49.00
2022-11-08T16:16:13.293Z,42.90
2022-11-08T16:18:43.596Z,37.20
2022-11-08T16:21:14.463Z,35.60
2022-11-08T16:23:42.798Z,42.50
2022-11-08T16:26:18.089Z,38.00
2022-11-08T16:28:48.161Z,34.70
2022-11-08T16:31:18.979Z,36.10
2022-11-08T16:33:49.937Z,36.80
2022-11-08T16:36:27.925Z,32.40
2022-11-08T16:38:58.071Z,44.60
2022-11-08T16:41:26.642Z,37.00
2022-11-08T16:43:57.273Z,36.60
2022-11-08T16:46:25.239Z,34.10
2022-11-08T16:48:59.239Z,36.60
2022-11-08T16:51:30.543Z,38.00
2022-11-08T16:53:58.308Z,40.30
2022-11-08T16:56:26.272Z,44.30
2022-11-08T16:58:54.044Z,41.50
2022-11-08T17:01:29.507Z,42.90
2022-11-08T17:03:57.486Z,41.60
2022-11-08T17:06:25.611Z,39.60
2022-11-08T17:08:53.474Z,43.20
2022-11-08T17:11:25.202Z,39.70
2022-11-08T17:13:53.153Z,37.70
2022-11-08T17:16:21.244Z,39.60
2022-11-08T17:18:53.331Z,38.60
2022-11-08T17:24:21.205Z,34.10
2022-11-08T17:26:53.601Z,34.00
2022-11-08T17:29:21.518Z,35.00
2022-11-08T17:31:52.302Z,39.50
2022-11-08T17:34:20.105Z,36.90
2022-11-08T17:36:47.939Z,39.80
2022-11-08T17:39:15.966Z,38.50
2022-11-08T17:41:43.721Z,36.90
2022-11-08T17:44:14.670Z,37.30
2022-11-08T17:46:42.701Z,35.90
2022-11-08T17:49:10.770Z,37.40
2022-11-08T17:51:38.733Z,37.70
2022-11-08T17:54:06.481Z,37.40
2022-11-08T17:56:34.234Z,37.70
2022-11-08T17:59:04.275Z,36.30
2022-11-08T18:01:32.662Z,36.30
2022-11-08T18:04:01.232Z,41.90
2022-11-08T18:06:32.065Z,41.40
2022-11-08T18:08:59.871Z,38.50
2022-11-08T18:11:27.641Z,36.10
2022-11-08T18:13:58.479Z,39.50
2022-11-08T18:16:26.415Z,34.60
2022-11-08T18:18:54.213Z,38.20
2022-11-08T18:21:22.131Z,36.30
2022-11-08T18:23:52.860Z,35.20
2022-11-08T18:26:20.666Z,36.80
2022-11-08T18:28:51.472Z,33.90
2022-11-08T18:31:23.176Z,37.40
2022-11-08T18:33:50.886Z,39.50
2022-11-08T18:36:27.107Z,40.00
2022-11-08T18:39:01.261Z,38.40
2022-11-08T18:41:33.394Z,38.00
2022-11-08T18:44:05.969Z,39.20
2022-11-08T18:46:43.144Z,40.20
2022-11-08T18:49:13.889Z,36.10
2022-11-08T18:51:41.713Z,40.10
2022-11-08T18:54:09.496Z,37.60
2022-11-08T18:56:37.466Z,40.00
2022-11-08T18:59:05.756Z,37.90
2022-11-08T19:01:33.603Z,41.60
2022-11-08T19:04:04.270Z,40.60
2022-11-08T19:06:32.031Z,40.60
2022-11-08T19:08:59.819Z,35.30
2022-11-08T19:11:30.587Z,40.90
2022-11-08T19:14:02.202Z,36.40
2022-11-08T19:16:32.685Z,36.20
2022-11-08T19:19:03.082Z,35.70
2022-11-08T19:21:35.505Z,38.40
2022-11-08T19:24:10.700Z,35.80
2022-11-08T19:26:39.463Z,36.20
2022-11-08T19:29:10.778Z,35.70
2022-11-08T19:31:39.131Z,37.60
2022-11-08T19:34:07.074Z,36.80
2022-11-08T19:36:43.590Z,34.50
2022-11-08T19:39:14.565Z,38.00
2022-11-08T19:41:45.378Z,37.50
2022-11-08T19:44:13.143Z,39.30
2022-11-08T19:46:42.824Z,35.10
2022-11-08T19:49:12.436Z,38.70
2022-11-08T19:51:40.258Z,35.60
2022-11-08T19:54:12.723Z,37.90
2022-11-08T19:59:28.398Z,39.90
2022-11-08T20:01:56.323Z,38.90
2022-11-08T20:04:26.934Z,40.60
2022-11-08T20:06:54.837Z,36.30
2022-11-08T20:09:27.359Z,38.00
2022-11-08T20:12:00.406Z,36.30
2022-11-08T20:14:28.142Z,37.70
2022-11-08T20:16:55.939Z,36.40
2022-11-08T20:19:23.743Z,36.50
2022-11-08T20:21:57.147Z,35.60
2022-11-08T20:24:24.891Z,38.20
2022-11-08T20:26:52.609Z,36.80
2022-11-08T20:29:20.434Z,37.50
2022-11-08T20:31:53.352Z,37.00
2022-11-08T20:34:21.103Z,37.10
2022-11-08T20:36:51.937Z,35.50
2022-11-08T20:39:19.677Z,35.10
2022-11-08T20:41:47.672Z,37.50
2022-11-08T20:44:17.403Z,35.80
2022-11-08T20:46:45.141Z,35.30
2022-11-08T20:49:12.870Z,35.20
2022-11-08T20:51:40.640Z,35.20
2022-11-08T20:54:12.138Z,38.00
2022-11-08T20:56:39.866Z,36.40
2022-11-08T20:59:09.287Z,37.30
2022-11-08T21:01:40.425Z,37.80
2022-11-08T21:04:12.314Z,35.80
2022-11-08T21:06:40.085Z,35.20
2022-11-08T21:09:32.521Z,38.40
2022-11-08T21:11:58.464Z,36.10
2022-11-08T21:14:26.300Z,36.10
2022-11-08T21:19:41.973Z,35.50
2022-11-08T21:22:15.375Z,32.30
2022-11-08T21:24:47.941Z,36.00
2022-11-08T21:27:17.880Z,37.80
2022-11-08T21:29:45.713Z,33.80
2022-11-08T21:32:14.041Z,33.00
2022-11-08T21:34:47.911Z,34.50
2022-11-08T21:37:16.075Z,34.40
2022-11-08T21:39:44.217Z,33.50
2022-11-08T21:42:12.365Z,33.40
2022-11-08T21:44:42.890Z,32.10
2022-11-08T21:47:14.064Z,33.00
2022-11-08T21:49:42.009Z,31.30
2022-11-08T21:52:10.132Z,36.00
2022-11-08T21:54:42.030Z,33.10
2022-11-08T21:57:10.177Z,32.30
2022-11-08T21:59:38.548Z,35.40
2022-11-08T22:02:10.386Z,32.60
2022-11-08T22:04:38.350Z,33.70
2022-11-08T22:07:06.565Z,31.50
2022-11-08T22:09:36.448Z,32.70
2022-11-08T22:12:04.554Z,33.80
2022-11-08T22:14:32.642Z,33.40
2022-11-08T22:17:00.833Z,33.50
2022-11-08T22:19:29.023Z,31.40
2022-11-08T22:22:00.023Z,30.40
2022-11-08T22:24:28.176Z,32.90
2022-11-08T22:26:58.171Z,31.20
2022-11-08T22:29:26.348Z,33.30
2022-11-08T22:31:58.375Z,31.90
2022-11-08T22:34:26.389Z,32.60
2022-11-08T22:36:54.441Z,30.80
2022-11-08T22:39:26.711Z,31.40
2022-11-08T22:41:57.800Z,31.40
2022-11-08T22:44:26.218Z,34.00
2022-11-08T22:46:54.135Z,30.90
2022-11-08T22:49:22.296Z,32.40
2022-11-08T22:51:50.184Z,29.10
2022-11-08T22:54:18.123Z,32.40
2022-11-08T22:56:46.078Z,32.40
2022-11-08T22:59:17.774Z,32.50
2022-11-08T23:01:46.007Z,32.20
2022-11-08T23:04:17.905Z,30.80
2022-11-08T23:06:45.895Z,32.10
2022-11-08T23:09:14.003Z,31.50
2022-11-08T23:12:00.424Z,32.80
2022-11-08T23:14:47.277Z,31.30
2022-11-08T23:17:15.390Z,35.10
2022-11-08T23:20:05.676Z,30.90
2022-11-08T23:22:52.475Z,31.90
2022-11-08T23:25:23.884Z,29.90
2022-11-08T23:28:10.674Z,29.70
2022-11-08T23:31:01.973Z,30.20
2022-11-08T23:33:29.810Z,32.30
2022-11-08T23:36:14.317Z,31.30
2022-11-08T23:38:44.631Z,30.40
2022-11-08T23:41:31.900Z,33.20
2022-11-08T23:44:18.601Z,30.50
2022-11-08T23:46:46.474Z,32.60
2022-11-08T23:49:14.308Z,27.90
2022-11-08T23:51:42.042Z,30.90
2022-11-08T23:54:10.148Z,29.00
2022-11-08T23:56:38.064Z,31.20
2022-11-08T23:59:10.865Z,28.80
